sensor_id;sensor_type;location;lat;lon;timestamp;temperature;humidity
1786;DHT22;890;48.158;11.540;2023-04-25T00:01:11;10.50;68.40
1786;DHT22;890;48.158;11.540;2023-04-25T00:03:38;10.50;68.10
1786;DHT22;890;48.158;11.540;2023-04-25T00:06:05;10.50;68.20
1786;DHT22;890;48.158;11.540;2023-04-25T00:08:32;10.50;68.10
1786;DHT22;890;48.158;11.540;2023-04-25T00:10:58;10.50;68.20
1786;DHT22;890;48.158;11.540;2023-04-25T00:13:24;10.60;68.20
1786;DHT22;890;48.158;11.540;2023-04-25T00:15:51;10.60;68.20
1786;DHT22;890;48.158;11.540;2023-04-25T00:18:16;11.30;68.80
1786;DHT22;890;48.158;11.540;2023-04-25T00:20:43;10.60;68.10
1786;DHT22;890;48.158;11.540;2023-04-25T00:23:12;10.60;68.20
1786;DHT22;890;48.158;11.540;2023-04-25T00:25:38;10.60;68.30
1786;DHT22;890;48.158;11.540;2023-04-25T00:28:03;10.60;68.20
1786;DHT22;890;48.158;11.540;2023-04-25T00:30:29;10.60;68.20
1786;DHT22;890;48.158;11.540;2023-04-25T00:32:54;10.60;68.30
1786;DHT22;890;48.158;11.540;2023-04-25T00:35:20;10.50;68.20
1786;DHT22;890;48.158;11.540;2023-04-25T00:37:46;10.50;68.30
1786;DHT22;890;48.158;11.540;2023-04-25T00:40:12;10.50;68.50
1786;DHT22;890;48.158;11.540;2023-04-25T00:42:37;10.50;68.50
1786;DHT22;890;48.158;11.540;2023-04-25T00:45:05;10.50;68.40
1786;DHT22;890;48.158;11.540;2023-04-25T00:47:32;10.50;68.50
1786;DHT22;890;48.158;11.540;2023-04-25T00:49:58;10.50;68.90
1786;DHT22;890;48.158;11.540;2023-04-25T00:52:23;11.60;69.30
1786;DHT22;890;48.158;11.540;2023-04-25T00:54:49;10.50;68.20
1786;DHT22;890;48.158;11.540;2023-04-25T00:57:15;10.40;68.40
1786;DHT22;890;48.158;11.540;2023-04-25T00:59:44;10.40;68.50
1786;DHT22;890;48.158;11.540;2023-04-25T01:02:10;10.50;68.70
1786;DHT22;890;48.158;11.540;2023-04-25T01:04:36;10.50;68.60
1786;DHT22;890;48.158;11.540;2023-04-25T01:07:02;10.70;68.70
1786;DHT22;890;48.158;11.540;2023-04-25T01:09:30;10.40;68.50
1786;DHT22;890;48.158;11.540;2023-04-25T01:11:57;10.40;68.50
1786;DHT22;890;48.158;11.540;2023-04-25T01:14:23;10.40;68.50
1786;DHT22;890;48.158;11.540;2023-04-25T01:16:48;10.30;68.60
1786;DHT22;890;48.158;11.540;2023-04-25T01:19:16;10.20;69.50
1786;DHT22;890;48.158;11.540;2023-04-25T01:21:42;10.20;69.80
1786;DHT22;890;48.158;11.540;2023-04-25T01:24:08;10.20;69.20
1786;DHT22;890;48.158;11.540;2023-04-25T01:26:34;10.60;69.70
1786;DHT22;890;48.158;11.540;2023-04-25T01:29:01;10.10;69.20
1786;DHT22;890;48.158;11.540;2023-04-25T01:31:27;10.10;69.20
1786;DHT22;890;48.158;11.540;2023-04-25T01:33:53;10.10;69.20
1786;DHT22;890;48.158;11.540;2023-04-25T01:36:19;10.10;69.20
1786;DHT22;890;48.158;11.540;2023-04-25T01:38:45;10.20;69.50
1786;DHT22;890;48.158;11.540;2023-04-25T01:41:13;10.10;69.30
1786;DHT22;890;48.158;11.540;2023-04-25T01:43:39;10.20;69.40
1786;DHT22;890;48.158;11.540;2023-04-25T01:46:05;10.20;69.40
1786;DHT22;890;48.158;11.540;2023-04-25T01:48:31;10.20;69.50
1786;DHT22;890;48.158;11.540;2023-04-25T01:50:56;10.10;69.30
1786;DHT22;890;48.158;11.540;2023-04-25T01:53:22;11.30;70.60
1786;DHT22;890;48.158;11.540;2023-04-25T01:55:48;10.10;69.30
1786;DHT22;890;48.158;11.540;2023-04-25T01:58:13;10.10;69.10
1786;DHT22;890;48.158;11.540;2023-04-25T02:00:39;10.00;69.20
1786;DHT22;890;48.158;11.540;2023-04-25T02:03:06;10.00;69.40
1786;DHT22;890;48.158;11.540;2023-04-25T02:05:38;11.30;70.70
1786;DHT22;890;48.158;11.540;2023-04-25T02:08:08;9.90;70.60
1786;DHT22;890;48.158;11.540;2023-04-25T02:10:34;9.90;70.50
1786;DHT22;890;48.158;11.540;2023-04-25T02:13:00;9.90;70.40
1786;DHT22;890;48.158;11.540;2023-04-25T02:15:26;9.90;70.50
1786;DHT22;890;48.158;11.540;2023-04-25T02:17:52;9.90;70.50
1786;DHT22;890;48.158;11.540;2023-04-25T02:20:19;10.80;70.40
1786;DHT22;890;48.158;11.540;2023-04-25T02:22:45;10.60;70.00
1786;DHT22;890;48.158;11.540;2023-04-25T02:25:11;11.10;70.50
1786;DHT22;890;48.158;11.540;2023-04-25T02:27:37;9.90;70.40
1786;DHT22;890;48.158;11.540;2023-04-25T02:30:04;10.00;69.30
1786;DHT22;890;48.158;11.540;2023-04-25T02:32:30;10.00;69.20
1786;DHT22;890;48.158;11.540;2023-04-25T02:34:56;10.00;69.10
1786;DHT22;890;48.158;11.540;2023-04-25T02:37:24;10.00;68.90
1786;DHT22;890;48.158;11.540;2023-04-25T02:39:49;10.00;68.90
1786;DHT22;890;48.158;11.540;2023-04-25T02:42:15;9.90;69.90
1786;DHT22;890;48.158;11.540;2023-04-25T02:44:41;9.90;70.10
1786;DHT22;890;48.158;11.540;2023-04-25T02:47:06;9.90;70.20
1786;DHT22;890;48.158;11.540;2023-04-25T02:49:32;10.90;70.10
1786;DHT22;890;48.158;11.540;2023-04-25T02:51:57;10.00;68.90
1786;DHT22;890;48.158;11.540;2023-04-25T02:54:23;10.00;68.80
1786;DHT22;890;48.158;11.540;2023-04-25T02:56:48;10.00;68.80
1786;DHT22;890;48.158;11.540;2023-04-25T02:59:14;10.00;68.60
1786;DHT22;890;48.158;11.540;2023-04-25T03:01:40;10.10;68.70
1786;DHT22;890;48.158;11.540;2023-04-25T03:04:05;10.20;68.50
1786;DHT22;890;48.158;11.540;2023-04-25T03:06:31;11.40;69.60
1786;DHT22;890;48.158;11.540;2023-04-25T03:08:56;10.10;68.40
1786;DHT22;890;48.158;11.540;2023-04-25T03:11:25;10.10;68.20
1786;DHT22;890;48.158;11.540;2023-04-25T03:13:50;9.30;68.80
1786;DHT22;890;48.158;11.540;2023-04-25T03:16:16;9.80;69.40
1786;DHT22;890;48.158;11.540;2023-04-25T03:18:42;9.60;70.00
1786;DHT22;890;48.158;11.540;2023-04-25T03:21:07;9.50;70.50
1786;DHT22;890;48.158;11.540;2023-04-25T03:23:33;9.50;71.00
1786;DHT22;890;48.158;11.540;2023-04-25T03:25:59;9.30;71.00
1786;DHT22;890;48.158;11.540;2023-04-25T03:28:24;9.40;71.40
1786;DHT22;890;48.158;11.540;2023-04-25T03:30:50;9.30;71.40
1786;DHT22;890;48.158;11.540;2023-04-25T03:33:16;9.40;71.60
1786;DHT22;890;48.158;11.540;2023-04-25T03:35:42;9.30;71.50
1786;DHT22;890;48.158;11.540;2023-04-25T03:38:08;9.20;71.40
1786;DHT22;890;48.158;11.540;2023-04-25T03:40:33;9.20;71.50
1786;DHT22;890;48.158;11.540;2023-04-25T03:42:59;9.10;71.70
1786;DHT22;890;48.158;11.540;2023-04-25T03:45:25;9.90;72.60
1786;DHT22;890;48.158;11.540;2023-04-25T03:47:50;9.00;71.80
1786;DHT22;890;48.158;11.540;2023-04-25T03:50:16;9.00;72.00
1786;DHT22;890;48.158;11.540;2023-04-25T03:52:43;9.00;72.00
1786;DHT22;890;48.158;11.540;2023-04-25T03:55:09;9.10;72.20
1786;DHT22;890;48.158;11.540;2023-04-25T03:57:35;10.20;72.20
1786;DHT22;890;48.158;11.540;2023-04-25T04:00:00;9.20;72.40
1786;DHT22;890;48.158;11.540;2023-04-25T04:02:26;9.20;72.10
1786;DHT22;890;48.158;11.540;2023-04-25T04:04:52;10.60;72.30
1786;DHT22;890;48.158;11.540;2023-04-25T04:07:17;10.60;72.30
1786;DHT22;890;48.158;11.540;2023-04-25T04:09:43;10.40;72.20
1786;DHT22;890;48.158;11.540;2023-04-25T04:12:08;9.40;72.30
1786;DHT22;890;48.158;11.540;2023-04-25T04:14:34;9.30;72.50
1786;DHT22;890;48.158;11.540;2023-04-25T04:17:00;9.30;72.50
1786;DHT22;890;48.158;11.540;2023-04-25T04:19:25;9.30;72.60
1786;DHT22;890;48.158;11.540;2023-04-25T04:21:51;9.50;72.40
1786;DHT22;890;48.158;11.540;2023-04-25T04:24:17;9.40;72.50
1786;DHT22;890;48.158;11.540;2023-04-25T04:26:42;9.40;72.40
1786;DHT22;890;48.158;11.540;2023-04-25T04:29:10;9.40;72.40
1786;DHT22;890;48.158;11.540;2023-04-25T04:31:36;9.40;72.60
1786;DHT22;890;48.158;11.540;2023-04-25T04:34:02;9.40;72.70
1786;DHT22;890;48.158;11.540;2023-04-25T04:36:29;9.40;72.70
1786;DHT22;890;48.158;11.540;2023-04-25T04:38:55;9.30;72.50
1786;DHT22;890;48.158;11.540;2023-04-25T04:41:23;9.20;72.70
1786;DHT22;890;48.158;11.540;2023-04-25T04:43:48;9.10;73.00
1786;DHT22;890;48.158;11.540;2023-04-25T04:46:14;9.00;73.20
1786;DHT22;890;48.158;11.540;2023-04-25T04:48:40;8.90;73.50
1786;DHT22;890;48.158;11.540;2023-04-25T04:51:06;9.70;74.50
1786;DHT22;890;48.158;11.540;2023-04-25T04:53:32;8.90;74.00
1786;DHT22;890;48.158;11.540;2023-04-25T04:55:57;9.00;74.20
1786;DHT22;890;48.158;11.540;2023-04-25T04:58:23;9.00;74.30
1786;DHT22;890;48.158;11.540;2023-04-25T05:00:49;10.40;74.50
1786;DHT22;890;48.158;11.540;2023-04-25T05:03:14;9.10;74.10
1786;DHT22;890;48.158;11.540;2023-04-25T05:05:41;9.00;74.20
1786;DHT22;890;48.158;11.540;2023-04-25T05:08:06;9.10;74.70
1786;DHT22;890;48.158;11.540;2023-04-25T05:10:32;9.20;74.90
1786;DHT22;890;48.158;11.540;2023-04-25T05:12:58;9.30;74.80
1786;DHT22;890;48.158;11.540;2023-04-25T05:15:24;9.40;74.70
1786;DHT22;890;48.158;11.540;2023-04-25T05:17:49;9.50;74.70
1786;DHT22;890;48.158;11.540;2023-04-25T05:20:15;10.20;74.10
1786;DHT22;890;48.158;11.540;2023-04-25T05:22:41;9.50;74.40
1786;DHT22;890;48.158;11.540;2023-04-25T05:25:07;9.50;74.30
1786;DHT22;890;48.158;11.540;2023-04-25T05:27:33;9.50;74.40
1786;DHT22;890;48.158;11.540;2023-04-25T05:29:59;9.70;74.70
1786;DHT22;890;48.158;11.540;2023-04-25T05:32:24;9.40;74.70
1786;DHT22;890;48.158;11.540;2023-04-25T05:34:50;9.50;74.70
1786;DHT22;890;48.158;11.540;2023-04-25T05:37:17;9.40;74.60
1786;DHT22;890;48.158;11.540;2023-04-25T05:39:42;9.30;74.70
1786;DHT22;890;48.158;11.540;2023-04-25T05:42:08;9.20;75.20
1786;DHT22;890;48.158;11.540;2023-04-25T05:44:33;9.10;75.40
1786;DHT22;890;48.158;11.540;2023-04-25T05:46:59;9.00;75.80
1786;DHT22;890;48.158;11.540;2023-04-25T05:49:25;9.00;76.10
1786;DHT22;890;48.158;11.540;2023-04-25T05:51:51;9.10;76.30
1786;DHT22;890;48.158;11.540;2023-04-25T05:54:16;9.00;76.30
1786;DHT22;890;48.158;11.540;2023-04-25T05:56:42;9.10;76.40
1786;DHT22;890;48.158;11.540;2023-04-25T05:59:07;9.00;76.30
1786;DHT22;890;48.158;11.540;2023-04-25T06:01:33;8.80;76.80
1786;DHT22;890;48.158;11.540;2023-04-25T06:03:58;8.40;78.30
1786;DHT22;890;48.158;11.540;2023-04-25T06:06:24;7.80;80.00
1786;DHT22;890;48.158;11.540;2023-04-25T06:08:52;7.40;81.60
1786;DHT22;890;48.158;11.540;2023-04-25T06:11:17;7.20;83.10
1786;DHT22;890;48.158;11.540;2023-04-25T06:13:43;7.20;84.30
1786;DHT22;890;48.158;11.540;2023-04-25T06:16:08;7.20;84.80
1786;DHT22;890;48.158;11.540;2023-04-25T06:18:34;7.10;85.60
1786;DHT22;890;48.158;11.540;2023-04-25T06:21:00;7.10;86.90
1786;DHT22;890;48.158;11.540;2023-04-25T06:23:25;7.30;87.70
1786;DHT22;890;48.158;11.540;2023-04-25T06:25:51;7.30;87.80
1786;DHT22;890;48.158;11.540;2023-04-25T06:28:16;7.20;88.10
1786;DHT22;890;48.158;11.540;2023-04-25T06:30:42;7.30;89.00
1786;DHT22;890;48.158;11.540;2023-04-25T06:33:08;7.30;89.80
1786;DHT22;890;48.158;11.540;2023-04-25T06:35:34;7.40;90.30
1786;DHT22;890;48.158;11.540;2023-04-25T06:38:00;7.50;90.60
1786;DHT22;890;48.158;11.540;2023-04-25T06:40:25;7.50;91.10
1786;DHT22;890;48.158;11.540;2023-04-25T06:42:51;7.50;91.10
1786;DHT22;890;48.158;11.540;2023-04-25T06:45:16;7.80;91.40
1786;DHT22;890;48.158;11.540;2023-04-25T06:47:42;7.80;91.80
1786;DHT22;890;48.158;11.540;2023-04-25T06:50:08;8.00;92.20
1786;DHT22;890;48.158;11.540;2023-04-25T06:52:34;8.20;92.10
1786;DHT22;890;48.158;11.540;2023-04-25T06:55:00;8.40;92.20
1786;DHT22;890;48.158;11.540;2023-04-25T06:57:25;8.60;92.30
1786;DHT22;890;48.158;11.540;2023-04-25T06:59:51;8.80;92.60
1786;DHT22;890;48.158;11.540;2023-04-25T07:02:17;9.10;92.90
1786;DHT22;890;48.158;11.540;2023-04-25T07:04:44;9.30;92.30
1786;DHT22;890;48.158;11.540;2023-04-25T07:07:11;9.50;91.90
1786;DHT22;890;48.158;11.540;2023-04-25T07:09:36;9.60;91.00
1786;DHT22;890;48.158;11.540;2023-04-25T07:12:02;9.60;90.40
1786;DHT22;890;48.158;11.540;2023-04-25T07:14:28;9.60;90.10
1786;DHT22;890;48.158;11.540;2023-04-25T07:16:54;9.50;89.50
1786;DHT22;890;48.158;11.540;2023-04-25T07:19:21;9.40;89.50
1786;DHT22;890;48.158;11.540;2023-04-25T07:21:49;9.40;90.00
1786;DHT22;890;48.158;11.540;2023-04-25T07:24:14;9.50;89.50
1786;DHT22;890;48.158;11.540;2023-04-25T07:26:40;9.50;89.50
1786;DHT22;890;48.158;11.540;2023-04-25T07:29:06;9.50;88.90
1786;DHT22;890;48.158;11.540;2023-04-25T07:31:31;9.60;89.50
1786;DHT22;890;48.158;11.540;2023-04-25T07:33:57;9.70;89.60
1786;DHT22;890;48.158;11.540;2023-04-25T07:36:23;9.90;89.80
1786;DHT22;890;48.158;11.540;2023-04-25T07:38:48;10.00;87.80
1786;DHT22;890;48.158;11.540;2023-04-25T07:41:14;9.90;88.60
1786;DHT22;890;48.158;11.540;2023-04-25T07:43:39;10.00;87.80
1786;DHT22;890;48.158;11.540;2023-04-25T07:46:05;10.00;86.70
1786;DHT22;890;48.158;11.540;2023-04-25T07:48:30;10.10;86.40
1786;DHT22;890;48.158;11.540;2023-04-25T07:50:56;10.20;86.60
1786;DHT22;890;48.158;11.540;2023-04-25T07:53:22;10.20;85.90
1786;DHT22;890;48.158;11.540;2023-04-25T07:55:47;10.20;85.40
1786;DHT22;890;48.158;11.540;2023-04-25T07:58:13;10.50;85.20
1786;DHT22;890;48.158;11.540;2023-04-25T08:00:40;10.40;84.50
1786;DHT22;890;48.158;11.540;2023-04-25T08:03:06;10.50;84.00
1786;DHT22;890;48.158;11.540;2023-04-25T08:05:32;10.50;83.50
1786;DHT22;890;48.158;11.540;2023-04-25T08:07:58;10.60;83.10
1786;DHT22;890;48.158;11.540;2023-04-25T08:10:24;10.90;83.00
1786;DHT22;890;48.158;11.540;2023-04-25T08:12:50;11.20;82.80
1786;DHT22;890;48.158;11.540;2023-04-25T08:15:15;11.40;82.10
1786;DHT22;890;48.158;11.540;2023-04-25T08:17:41;11.50;81.70
1786;DHT22;890;48.158;11.540;2023-04-25T08:20:07;11.40;81.10
1786;DHT22;890;48.158;11.540;2023-04-25T08:22:32;11.50;80.90
1786;DHT22;890;48.158;11.540;2023-04-25T08:24:59;11.50;79.70
1786;DHT22;890;48.158;11.540;2023-04-25T08:27:25;11.40;79.00
1786;DHT22;890;48.158;11.540;2023-04-25T08:29:50;11.30;78.70
1786;DHT22;890;48.158;11.540;2023-04-25T08:32:16;11.20;78.20
1786;DHT22;890;48.158;11.540;2023-04-25T08:34:42;11.20;78.20
1786;DHT22;890;48.158;11.540;2023-04-25T08:37:09;11.20;78.60
1786;DHT22;890;48.158;11.540;2023-04-25T08:39:36;11.30;79.40
1786;DHT22;890;48.158;11.540;2023-04-25T08:42:05;11.50;79.70
1786;DHT22;890;48.158;11.540;2023-04-25T08:44:34;11.60;77.20
1786;DHT22;890;48.158;11.540;2023-04-25T08:47:04;11.70;76.20
1786;DHT22;890;48.158;11.540;2023-04-25T08:49:32;11.70;75.60
1786;DHT22;890;48.158;11.540;2023-04-25T08:52:03;11.80;75.20
1786;DHT22;890;48.158;11.540;2023-04-25T08:54:31;12.00;75.00
1786;DHT22;890;48.158;11.540;2023-04-25T08:57:00;12.00;73.00
1786;DHT22;890;48.158;11.540;2023-04-25T08:59:30;11.90;71.80
1786;DHT22;890;48.158;11.540;2023-04-25T09:01:56;11.90;71.70
1786;DHT22;890;48.158;11.540;2023-04-25T09:04:22;11.90;71.30
1786;DHT22;890;48.158;11.540;2023-04-25T09:06:48;12.10;70.80
1786;DHT22;890;48.158;11.540;2023-04-25T09:09:13;12.20;70.20
1786;DHT22;890;48.158;11.540;2023-04-25T09:11:39;12.30;69.80
1786;DHT22;890;48.158;11.540;2023-04-25T09:14:15;12.30;68.80
1786;DHT22;890;48.158;11.540;2023-04-25T09:16:57;12.10;67.70
1786;DHT22;890;48.158;11.540;2023-04-25T09:19:30;12.10;68.00
1786;DHT22;890;48.158;11.540;2023-04-25T09:21:58;12.30;68.40
1786;DHT22;890;48.158;11.540;2023-04-25T09:24:31;12.40;67.50
1786;DHT22;890;48.158;11.540;2023-04-25T09:26:57;12.20;65.90
1786;DHT22;890;48.158;11.540;2023-04-25T09:29:34;12.20;66.30
1786;DHT22;890;48.158;11.540;2023-04-25T09:32:15;12.20;65.60
1786;DHT22;890;48.158;11.540;2023-04-25T09:34:43;12.20;65.20
1786;DHT22;890;48.158;11.540;2023-04-25T09:37:10;12.30;65.40
1786;DHT22;890;48.158;11.540;2023-04-25T09:39:37;12.50;67.20
1786;DHT22;890;48.158;11.540;2023-04-25T09:42:04;13.10;71.10
1786;DHT22;890;48.158;11.540;2023-04-25T09:44:29;13.50;68.70
1786;DHT22;890;48.158;11.540;2023-04-25T09:46:55;13.60;65.80
1786;DHT22;890;48.158;11.540;2023-04-25T09:49:21;13.40;64.40
1786;DHT22;890;48.158;11.540;2023-04-25T09:51:57;13.60;66.90
1786;DHT22;890;48.158;11.540;2023-04-25T09:54:26;14.60;76.40
1786;DHT22;890;48.158;11.540;2023-04-25T09:56:53;15.60;80.10
1786;DHT22;890;48.158;11.540;2023-04-25T09:59:22;16.90;82.40
1786;DHT22;890;48.158;11.540;2023-04-25T10:01:49;18.00;79.30
1786;DHT22;890;48.158;11.540;2023-04-25T10:04:20;18.80;73.00
1786;DHT22;890;48.158;11.540;2023-04-25T10:06:48;18.60;63.40
1786;DHT22;890;48.158;11.540;2023-04-25T10:09:15;17.90;61.40
1786;DHT22;890;48.158;11.540;2023-04-25T10:11:41;17.80;66.20
1786;DHT22;890;48.158;11.540;2023-04-25T10:14:06;18.40;69.40
1786;DHT22;890;48.158;11.540;2023-04-25T10:16:32;19.40;69.80
1786;DHT22;890;48.158;11.540;2023-04-25T10:18:58;19.60;63.50
1786;DHT22;890;48.158;11.540;2023-04-25T10:21:24;19.60;61.40
1786;DHT22;890;48.158;11.540;2023-04-25T10:23:53;19.90;61.20
1786;DHT22;890;48.158;11.540;2023-04-25T10:26:18;19.90;57.80
1786;DHT22;890;48.158;11.540;2023-04-25T10:28:58;19.00;52.70
1786;DHT22;890;48.158;11.540;2023-04-25T10:31:24;18.10;50.10
1786;DHT22;890;48.158;11.540;2023-04-25T10:33:50;17.10;50.20
1786;DHT22;890;48.158;11.540;2023-04-25T10:36:23;16.30;50.10
1786;DHT22;890;48.158;11.540;2023-04-25T10:38:50;15.60;50.50
1786;DHT22;890;48.158;11.540;2023-04-25T10:41:18;14.70;51.10
1786;DHT22;890;48.158;11.540;2023-04-25T10:43:46;13.80;51.50
1786;DHT22;890;48.158;11.540;2023-04-25T10:46:23;13.20;51.90
1786;DHT22;890;48.158;11.540;2023-04-25T10:48:56;12.60;52.00
1786;DHT22;890;48.158;11.540;2023-04-25T10:51:27;12.20;52.60
1786;DHT22;890;48.158;11.540;2023-04-25T10:54:01;12.10;53.00
1786;DHT22;890;48.158;11.540;2023-04-25T10:56:31;12.00;53.30
1786;DHT22;890;48.158;11.540;2023-04-25T10:59:16;12.00;53.70
1786;DHT22;890;48.158;11.540;2023-04-25T11:01:48;12.00;55.10
1786;DHT22;890;48.158;11.540;2023-04-25T11:09:29;12.10;55.60
1786;DHT22;890;48.158;11.540;2023-04-25T11:11:59;12.00;55.60
1786;DHT22;890;48.158;11.540;2023-04-25T11:14:25;11.80;56.50
1786;DHT22;890;48.158;11.540;2023-04-25T11:16:58;11.70;57.50
1786;DHT22;890;48.158;11.540;2023-04-25T11:19:25;11.60;58.60
1786;DHT22;890;48.158;11.540;2023-04-25T11:21:55;11.50;59.70
1786;DHT22;890;48.158;11.540;2023-04-25T11:24:32;11.20;61.90
1786;DHT22;890;48.158;11.540;2023-04-25T11:26:58;11.30;62.70
1786;DHT22;890;48.158;11.540;2023-04-25T11:29:28;11.40;61.50
1786;DHT22;890;48.158;11.540;2023-04-25T11:31:55;11.20;61.30
1786;DHT22;890;48.158;11.540;2023-04-25T11:34:24;11.20;60.80
1786;DHT22;890;48.158;11.540;2023-04-25T11:36:51;11.30;60.90
1786;DHT22;890;48.158;11.540;2023-04-25T11:39:18;11.60;60.60
1786;DHT22;890;48.158;11.540;2023-04-25T11:41:44;11.50;60.10
1786;DHT22;890;48.158;11.540;2023-04-25T11:44:10;11.50;60.60
1786;DHT22;890;48.158;11.540;2023-04-25T11:46:36;11.60;60.50
1786;DHT22;890;48.158;11.540;2023-04-25T11:49:02;11.40;59.90
1786;DHT22;890;48.158;11.540;2023-04-25T11:51:27;11.40;60.00
1786;DHT22;890;48.158;11.540;2023-04-25T11:53:53;11.10;61.50
1786;DHT22;890;48.158;11.540;2023-04-25T11:56:20;10.50;63.80
1786;DHT22;890;48.158;11.540;2023-04-25T11:59:00;10.30;66.30
1786;DHT22;890;48.158;11.540;2023-04-25T12:01:31;10.20;68.10
1786;DHT22;890;48.158;11.540;2023-04-25T12:03:57;10.20;68.20
1786;DHT22;890;48.158;11.540;2023-04-25T12:06:29;10.10;67.90
1786;DHT22;890;48.158;11.540;2023-04-25T12:09:16;10.00;68.60
1786;DHT22;890;48.158;11.540;2023-04-25T12:11:44;9.90;69.10
1786;DHT22;890;48.158;11.540;2023-04-25T12:14:11;9.90;69.00
1786;DHT22;890;48.158;11.540;2023-04-25T12:16:44;9.90;69.80
1786;DHT22;890;48.158;11.540;2023-04-25T12:19:13;9.90;70.30
1786;DHT22;890;48.158;11.540;2023-04-25T12:21:39;9.90;69.90
1786;DHT22;890;48.158;11.540;2023-04-25T12:24:25;9.90;69.90
1786;DHT22;890;48.158;11.540;2023-04-25T12:26:58;9.80;70.20
1786;DHT22;890;48.158;11.540;2023-04-25T12:29:25;9.70;70.00
1786;DHT22;890;48.158;11.540;2023-04-25T12:31:53;9.70;71.20
1786;DHT22;890;48.158;11.540;2023-04-25T12:34:19;9.90;71.30
1786;DHT22;890;48.158;11.540;2023-04-25T12:36:45;10.00;70.20
1786;DHT22;890;48.158;11.540;2023-04-25T12:39:18;10.20;70.50
1786;DHT22;890;48.158;11.540;2023-04-25T12:41:48;10.10;70.70
1786;DHT22;890;48.158;11.540;2023-04-25T12:44:14;10.20;71.20
1786;DHT22;890;48.158;11.540;2023-04-25T12:46:39;10.50;71.00
1786;DHT22;890;48.158;11.540;2023-04-25T12:49:08;10.40;70.50
1786;DHT22;890;48.158;11.540;2023-04-25T12:51:36;10.30;70.10
1786;DHT22;890;48.158;11.540;2023-04-25T12:54:04;10.10;70.20
1786;DHT22;890;48.158;11.540;2023-04-25T12:56:30;10.20;70.40
1786;DHT22;890;48.158;11.540;2023-04-25T12:58:56;10.10;71.00
1786;DHT22;890;48.158;11.540;2023-04-25T13:01:22;10.00;71.30
1786;DHT22;890;48.158;11.540;2023-04-25T13:03:48;9.90;72.80
1786;DHT22;890;48.158;11.540;2023-04-25T13:06:15;9.70;73.20
1786;DHT22;890;48.158;11.540;2023-04-25T13:08:41;9.70;73.40
1786;DHT22;890;48.158;11.540;2023-04-25T13:11:07;9.60;73.70
1786;DHT22;890;48.158;11.540;2023-04-25T13:13:32;9.50;73.70
1786;DHT22;890;48.158;11.540;2023-04-25T13:16:00;9.50;74.70
1786;DHT22;890;48.158;11.540;2023-04-25T13:18:26;9.60;75.00
1786;DHT22;890;48.158;11.540;2023-04-25T13:20:55;9.50;75.00
1786;DHT22;890;48.158;11.540;2023-04-25T13:23:21;9.50;76.20
1786;DHT22;890;48.158;11.540;2023-04-25T13:25:47;9.60;76.70
1786;DHT22;890;48.158;11.540;2023-04-25T13:28:13;9.50;76.90
1786;DHT22;890;48.158;11.540;2023-04-25T13:30:40;9.60;77.60
1786;DHT22;890;48.158;11.540;2023-04-25T13:33:06;9.60;78.00
1786;DHT22;890;48.158;11.540;2023-04-25T13:35:33;9.60;78.20
1786;DHT22;890;48.158;11.540;2023-04-25T13:37:59;9.40;77.90
1786;DHT22;890;48.158;11.540;2023-04-25T13:40:25;9.20;77.80
1786;DHT22;890;48.158;11.540;2023-04-25T13:42:51;9.10;78.20
1786;DHT22;890;48.158;11.540;2023-04-25T13:45:17;9.00;78.90
1786;DHT22;890;48.158;11.540;2023-04-25T13:47:43;8.90;79.00
1786;DHT22;890;48.158;11.540;2023-04-25T13:50:09;8.90;79.40
1786;DHT22;890;48.158;11.540;2023-04-25T13:52:35;8.90;79.70
1786;DHT22;890;48.158;11.540;2023-04-25T13:55:00;8.90;80.00
1786;DHT22;890;48.158;11.540;2023-04-25T13:57:29;9.00;80.50
1786;DHT22;890;48.158;11.540;2023-04-25T13:59:55;9.10;81.00
1786;DHT22;890;48.158;11.540;2023-04-25T14:02:21;9.20;81.30
1786;DHT22;890;48.158;11.540;2023-04-25T14:04:46;9.20;81.80
1786;DHT22;890;48.158;11.540;2023-04-25T14:07:13;9.20;81.90
1786;DHT22;890;48.158;11.540;2023-04-25T14:09:41;9.20;82.30
1786;DHT22;890;48.158;11.540;2023-04-25T14:12:07;9.10;81.90
1786;DHT22;890;48.158;11.540;2023-04-25T14:14:32;9.00;82.30
1786;DHT22;890;48.158;11.540;2023-04-25T14:16:58;9.00;82.70
1786;DHT22;890;48.158;11.540;2023-04-25T14:19:25;9.10;82.50
1786;DHT22;890;48.158;11.540;2023-04-25T14:21:51;9.10;82.70
1786;DHT22;890;48.158;11.540;2023-04-25T14:24:17;9.00;82.90
1786;DHT22;890;48.158;11.540;2023-04-25T14:26:43;9.00;83.20
1786;DHT22;890;48.158;11.540;2023-04-25T14:29:09;9.10;83.90
1786;DHT22;890;48.158;11.540;2023-04-25T14:31:37;9.30;84.70
1786;DHT22;890;48.158;11.540;2023-04-25T14:34:03;9.40;84.30
1786;DHT22;890;48.158;11.540;2023-04-25T14:36:29;9.60;84.10
1786;DHT22;890;48.158;11.540;2023-04-25T14:38:56;9.60;83.10
1786;DHT22;890;48.158;11.540;2023-04-25T14:41:22;9.50;82.70
1786;DHT22;890;48.158;11.540;2023-04-25T14:43:48;9.60;83.10
1786;DHT22;890;48.158;11.540;2023-04-25T14:46:14;9.80;83.30
1786;DHT22;890;48.158;11.540;2023-04-25T14:48:40;10.00;82.40
1786;DHT22;890;48.158;11.540;2023-04-25T14:51:05;10.00;81.80
1786;DHT22;890;48.158;11.540;2023-04-25T14:53:31;9.90;82.10
1786;DHT22;890;48.158;11.540;2023-04-25T14:55:57;9.90;82.00
1786;DHT22;890;48.158;11.540;2023-04-25T14:58:23;10.00;80.40
1786;DHT22;890;48.158;11.540;2023-04-25T15:00:50;9.90;81.30
1786;DHT22;890;48.158;11.540;2023-04-25T15:03:16;9.90;81.50
1786;DHT22;890;48.158;11.540;2023-04-25T15:05:43;10.00;80.60
1786;DHT22;890;48.158;11.540;2023-04-25T15:08:09;10.00;80.30
1786;DHT22;890;48.158;11.540;2023-04-25T15:10:35;9.90;80.80
1786;DHT22;890;48.158;11.540;2023-04-25T15:13:01;10.10;80.40
1786;DHT22;890;48.158;11.540;2023-04-25T15:15:27;9.90;81.40
1786;DHT22;890;48.158;11.540;2023-04-25T15:17:53;10.00;80.40
1786;DHT22;890;48.158;11.540;2023-04-25T15:20:21;10.00;80.70
1786;DHT22;890;48.158;11.540;2023-04-25T15:22:47;10.00;80.30
1786;DHT22;890;48.158;11.540;2023-04-25T15:25:15;10.10;80.70
1786;DHT22;890;48.158;11.540;2023-04-25T15:27:43;10.10;80.10
1786;DHT22;890;48.158;11.540;2023-04-25T15:30:11;10.00;80.00
1786;DHT22;890;48.158;11.540;2023-04-25T15:32:38;10.00;79.80
1786;DHT22;890;48.158;11.540;2023-04-25T15:35:05;10.20;79.60
1786;DHT22;890;48.158;11.540;2023-04-25T15:37:32;10.20;79.00
1786;DHT22;890;48.158;11.540;2023-04-25T15:40:09;10.30;78.70
1786;DHT22;890;48.158;11.540;2023-04-25T15:42:46;10.20;78.90
1786;DHT22;890;48.158;11.540;2023-04-25T15:45:13;10.30;78.80
1786;DHT22;890;48.158;11.540;2023-04-25T15:47:40;10.20;78.90
1786;DHT22;890;48.158;11.540;2023-04-25T15:50:07;10.10;78.90
1786;DHT22;890;48.158;11.540;2023-04-25T15:52:35;9.90;80.10
1786;DHT22;890;48.158;11.540;2023-04-25T15:55:01;9.70;80.20
1786;DHT22;890;48.158;11.540;2023-04-25T15:57:26;9.70;80.20
1786;DHT22;890;48.158;11.540;2023-04-25T15:59:52;9.60;80.30
1786;DHT22;890;48.158;11.540;2023-04-25T16:02:18;9.50;80.40
1786;DHT22;890;48.158;11.540;2023-04-25T16:04:44;9.40;80.90
1786;DHT22;890;48.158;11.540;2023-04-25T16:07:10;9.40;81.50
1786;DHT22;890;48.158;11.540;2023-04-25T16:09:36;9.40;82.10
1786;DHT22;890;48.158;11.540;2023-04-25T16:12:03;9.50;82.60